createdAt,value
2023-04-06T00:01:00.800Z,8.95
2023-04-06T00:06:02.582Z,9.63
2023-04-06T00:11:04.383Z,9.40
2023-04-06T00:16:08.456Z,10.77
2023-04-06T00:21:14.109Z,10.80
2023-04-06T00:26:15.859Z,11.02
2023-04-06T00:31:17.592Z,9.80
2023-04-06T00:36:19.414Z,11.40
2023-04-06T00:41:21.694Z,9.98
2023-04-06T00:46:23.765Z,11.43
2023-04-06T00:51:26.276Z,8.35
2023-04-06T00:56:28.458Z,8.15
2023-04-06T01:01:30.577Z,9.98
2023-04-06T01:06:32.433Z,8.95
2023-04-06T01:11:34.134Z,9.23
2023-04-06T01:16:36.331Z,9.05
2023-04-06T01:21:39.400Z,9.30
2023-04-06T01:26:42.054Z,9.30
2023-04-06T01:31:43.963Z,8.48
2023-04-06T01:36:45.974Z,10.45
2023-04-06T01:41:48.219Z,9.32
2023-04-06T01:46:50.031Z,10.30
2023-04-06T01:51:52.807Z,9.88
2023-04-06T01:56:54.634Z,9.38
2023-04-06T02:01:56.373Z,10.20
2023-04-06T02:06:58.076Z,8.10
2023-04-06T02:11:59.810Z,9.40
2023-04-06T02:17:01.518Z,8.77
2023-04-06T02:22:03.236Z,10.32
2023-04-06T02:27:04.976Z,10.30
2023-04-06T02:32:06.820Z,8.82
2023-04-06T02:37:08.601Z,8.07
2023-04-06T02:42:10.474Z,12.40
2023-04-06T02:47:12.232Z,7.45
2023-04-06T02:52:13.954Z,10.23
2023-04-06T02:57:15.817Z,10.05
2023-04-06T03:02:17.545Z,9.13
2023-04-06T03:07:19.293Z,10.40
2023-04-06T03:12:21.354Z,9.50
2023-04-06T03:17:23.087Z,9.63
2023-04-06T03:22:24.888Z,8.45
2023-04-06T03:27:26.614Z,13.05
2023-04-06T03:32:28.386Z,9.93
2023-04-06T03:37:30.242Z,9.93
2023-04-06T03:42:33.474Z,9.15
2023-04-06T03:47:35.458Z,10.77
2023-04-06T03:52:37.459Z,10.10
2023-04-06T03:57:39.175Z,11.32
2023-04-06T04:02:41.372Z,9.65
2023-04-06T04:07:43.296Z,10.88
2023-04-06T04:12:45.004Z,10.82
2023-04-06T04:17:50.526Z,9.40
2023-04-06T04:22:52.307Z,13.60
2023-04-06T04:27:54.063Z,12.75
2023-04-06T04:32:55.920Z,11.15
2023-04-06T04:37:57.726Z,12.70
2023-04-06T04:42:59.499Z,16.08
2023-04-06T04:48:01.560Z,13.75
2023-04-06T04:53:06.200Z,12.73
2023-04-06T04:58:09.941Z,14.20
2023-04-06T05:03:19.774Z,14.70
2023-04-06T05:08:21.675Z,14.88
2023-04-06T05:13:23.678Z,11.48
2023-04-06T05:18:25.631Z,12.80
2023-04-06T05:23:27.451Z,11.80
2023-04-06T05:28:29.233Z,13.18
2023-04-06T05:33:31.270Z,12.88
2023-04-06T05:38:34.413Z,16.60
2023-04-06T05:43:36.158Z,11.88
2023-04-06T05:48:37.866Z,20.00
2023-04-06T05:53:39.615Z,15.95
2023-04-06T05:58:41.624Z,14.98
2023-04-06T06:03:43.362Z,13.05
2023-04-06T06:08:45.071Z,13.70
2023-04-06T06:13:46.866Z,14.23
2023-04-06T06:18:48.872Z,14.80
2023-04-06T06:23:51.183Z,14.60
2023-04-06T06:28:52.930Z,10.38
2023-04-06T06:33:54.865Z,12.82
2023-04-06T06:38:56.611Z,12.55
2023-04-06T06:43:58.334Z,13.25
2023-04-06T06:49:00.435Z,12.88
2023-04-06T06:54:02.155Z,8.10
2023-04-06T06:59:04.030Z,10.20
2023-04-06T07:04:06.060Z,7.95
2023-04-06T07:09:07.963Z,9.50
2023-04-06T07:14:09.897Z,9.45
2023-04-06T07:19:12.303Z,9.05
2023-04-06T07:24:14.120Z,10.75
2023-04-06T07:29:15.898Z,8.63
2023-04-06T07:34:17.624Z,8.23
2023-04-06T07:39:19.464Z,9.27
2023-04-06T07:44:21.487Z,8.57
2023-04-06T07:49:23.960Z,8.70
2023-04-06T07:54:26.138Z,8.65
2023-04-06T07:59:27.940Z,8.93
2023-04-06T08:04:29.803Z,8.80
2023-04-06T08:09:32.057Z,6.88
2023-04-06T08:14:34.460Z,7.03
2023-04-06T08:19:36.351Z,9.57
2023-04-06T08:24:38.089Z,7.07
2023-04-06T08:29:39.959Z,10.10
2023-04-06T08:34:42.021Z,8.02
2023-04-06T08:39:43.750Z,8.15
2023-04-06T08:44:46.832Z,8.95
2023-04-06T08:49:49.256Z,11.75
2023-04-06T08:54:51.063Z,9.77
2023-04-06T08:59:53.044Z,7.18
2023-04-06T09:04:55.627Z,11.40
2023-04-06T09:09:57.600Z,7.65
2023-04-06T09:15:01.246Z,7.95
2023-04-06T09:20:04.408Z,9.27
2023-04-06T09:25:07.435Z,10.43
2023-04-06T09:30:15.162Z,9.70
2023-04-06T09:35:18.344Z,9.93
2023-04-06T09:40:20.718Z,10.30
2023-04-06T09:45:22.566Z,8.32
2023-04-06T09:50:26.800Z,9.30
2023-04-06T09:55:58.486Z,9.35
2023-04-06T10:01:13.128Z,8.23
2023-04-06T10:06:19.916Z,8.45
2023-04-06T10:11:22.537Z,8.32
2023-04-06T10:16:26.102Z,6.95
2023-04-06T10:21:31.752Z,10.43
2023-04-06T10:26:33.494Z,6.20
2023-04-06T10:31:43.610Z,7.18
2023-04-06T10:36:45.357Z,9.02
2023-04-06T10:41:49.159Z,6.97
2023-04-06T10:46:58.645Z,8.10
2023-04-06T10:52:00.500Z,7.45
2023-04-06T10:57:02.454Z,5.88
2023-04-06T11:02:04.197Z,8.00
2023-04-06T11:07:06.357Z,8.50
2023-04-06T11:12:08.091Z,8.75
2023-04-06T11:17:10.080Z,7.75
2023-04-06T11:22:11.886Z,7.75
2023-04-06T11:27:16.968Z,6.53
2023-04-06T11:32:23.061Z,6.60
2023-04-06T11:37:28.535Z,9.35
2023-04-06T11:42:31.012Z,7.75
2023-04-06T11:47:38.810Z,6.63
2023-04-06T11:52:43.968Z,9.00
2023-04-06T11:57:50.239Z,6.20
2023-04-06T12:02:52.543Z,7.05
2023-04-06T12:07:54.391Z,7.97
2023-04-06T12:12:56.337Z,6.18
2023-04-06T12:17:58.077Z,6.82
2023-04-06T12:23:00.116Z,6.35
2023-04-06T12:28:04.332Z,7.25
2023-04-06T12:33:06.202Z,7.03
2023-04-06T12:38:08.137Z,10.77
2023-04-06T12:43:10.179Z,7.40
2023-04-06T12:48:11.945Z,7.22
2023-04-06T12:53:13.660Z,7.05
2023-04-06T12:58:19.172Z,6.28
2023-04-06T13:03:21.856Z,7.45
2023-04-06T13:08:26.767Z,8.35
2023-04-06T13:13:30.624Z,7.15
2023-04-06T13:18:36.453Z,7.93
2023-04-06T13:23:38.388Z,6.43
2023-04-06T13:28:40.937Z,8.13
2023-04-06T13:33:43.200Z,8.38
2023-04-06T13:38:45.227Z,10.32
2023-04-06T13:43:47.256Z,5.32
2023-04-06T13:48:49.437Z,9.02
2023-04-06T13:53:53.672Z,6.82
2023-04-06T13:58:57.064Z,6.57
2023-04-06T14:04:01.611Z,6.32
2023-04-06T14:09:03.466Z,8.15
2023-04-06T14:14:05.176Z,5.85
2023-04-06T14:19:06.909Z,7.32
2023-04-06T14:24:09.649Z,8.15
2023-04-06T14:29:11.557Z,10.98
2023-04-06T14:34:13.199Z,8.25
2023-04-06T14:39:14.867Z,5.60
2023-04-06T14:44:17.586Z,6.82
2023-04-06T14:49:19.325Z,6.65
2023-04-06T14:54:21.008Z,8.45
2023-04-06T14:59:22.657Z,6.70
2023-04-06T15:04:24.469Z,8.68
2023-04-06T15:09:26.533Z,6.18
2023-04-06T15:14:28.307Z,7.28
2023-04-06T15:19:30.043Z,6.65
2023-04-06T15:24:31.741Z,6.57
2023-04-06T15:29:33.453Z,9.20
2023-04-06T15:34:35.179Z,7.55
2023-04-06T15:39:37.765Z,8.88
2023-04-06T15:44:39.432Z,5.90
2023-04-06T15:49:41.216Z,7.97
2023-04-06T15:54:42.902Z,6.28
2023-04-06T15:59:44.867Z,6.22
2023-04-06T16:04:46.668Z,7.72
2023-04-06T16:09:48.557Z,9.63
2023-04-06T16:14:50.680Z,6.30
2023-04-06T16:19:52.351Z,7.72
2023-04-06T16:24:54.055Z,6.68
2023-04-06T16:29:55.850Z,6.78
2023-04-06T16:34:57.604Z,7.43
2023-04-06T16:39:59.371Z,9.38
2023-04-06T16:45:01.096Z,8.32
2023-04-06T16:50:04.943Z,8.35
2023-04-06T16:55:08.307Z,9.02
2023-04-06T17:00:11.832Z,6.88
2023-04-06T17:05:13.536Z,9.73
2023-04-06T17:10:15.556Z,7.82
2023-04-06T17:15:17.654Z,8.55
2023-04-06T17:20:19.613Z,9.25
2023-04-06T17:25:21.972Z,9.88
2023-04-06T17:30:23.711Z,7.80
2023-04-06T17:35:26.050Z,8.80
2023-04-06T17:40:27.847Z,8.45
2023-04-06T17:45:29.610Z,9.63
2023-04-06T17:50:31.587Z,7.90
2023-04-06T17:55:33.262Z,9.10
2023-04-06T18:00:35.002Z,9.18
2023-04-06T18:05:36.773Z,12.85
2023-04-06T18:10:45.224Z,10.98
2023-04-06T18:15:46.960Z,13.52
2023-04-06T18:20:48.650Z,10.70
2023-04-06T18:25:50.436Z,9.88
2023-04-06T18:30:52.180Z,11.20
2023-04-06T18:35:56.398Z,12.13
2023-04-06T18:40:59.137Z,12.55
2023-04-06T18:46:01.006Z,11.20
2023-04-06T18:51:03.912Z,12.20
2023-04-06T18:56:14.524Z,14.50
2023-04-06T19:01:28.251Z,13.65
2023-04-06T19:06:31.182Z,13.65
2023-04-06T19:11:33.365Z,14.02
2023-04-06T19:16:40.976Z,14.30
2023-04-06T19:21:42.889Z,15.27
2023-04-06T19:26:44.593Z,14.98
2023-04-06T19:31:46.692Z,13.57
2023-04-06T19:36:48.502Z,12.02
2023-04-06T19:41:50.316Z,13.85
2023-04-06T19:46:53.047Z,13.45
2023-04-06T19:51:55.649Z,14.43
2023-04-06T19:56:57.430Z,17.23
2023-04-06T20:01:59.165Z,17.58
2023-04-06T20:07:01.094Z,22.95
2023-04-06T20:12:03.298Z,22.23
2023-04-06T20:17:05.653Z,23.02
2023-04-06T20:22:07.674Z,21.58
2023-04-06T20:27:09.590Z,18.75
2023-04-06T20:32:12.410Z,19.27
2023-04-06T20:37:14.971Z,18.45
2023-04-06T20:42:17.158Z,17.48
2023-04-06T20:47:19.131Z,17.85
2023-04-06T20:52:21.040Z,16.38
2023-04-06T20:57:24.619Z,17.45
2023-04-06T21:02:26.632Z,18.98
2023-04-06T21:07:28.419Z,16.42
2023-04-06T21:12:30.097Z,22.52
2023-04-06T21:17:31.935Z,17.02
2023-04-06T21:22:33.978Z,20.02
2023-04-06T21:27:35.627Z,19.00
2023-04-06T21:32:37.475Z,17.55
2023-04-06T21:37:39.198Z,17.13
2023-04-06T21:42:40.930Z,18.38
2023-04-06T21:47:42.626Z,16.77
2023-04-06T21:52:44.843Z,17.52
2023-04-06T21:57:46.599Z,16.27
2023-04-06T22:02:48.432Z,21.48
2023-04-06T22:07:50.277Z,17.65
2023-04-06T22:12:52.069Z,20.65
2023-04-06T22:17:53.823Z,18.50
2023-04-06T22:22:55.655Z,16.65
2023-04-06T22:27:57.506Z,17.75
2023-04-06T22:32:59.395Z,16.98
2023-04-06T22:38:01.270Z,18.13
2023-04-06T22:43:03.025Z,19.40
2023-04-06T22:48:04.756Z,19.58
2023-04-06T22:53:06.696Z,18.77
2023-04-06T22:58:08.426Z,16.50
2023-04-06T23:03:10.704Z,16.80
2023-04-06T23:08:12.540Z,17.90
2023-04-06T23:13:14.233Z,17.25
2023-04-06T23:18:16.305Z,19.15
2023-04-06T23:23:17.992Z,20.45
2023-04-06T23:28:19.677Z,18.60
2023-04-06T23:33:21.710Z,21.83
2023-04-06T23:38:23.542Z,20.23
2023-04-06T23:43:25.317Z,17.20
2023-04-06T23:48:27.016Z,21.08
2023-04-06T23:53:28.693Z,21.02
2023-04-06T23:58:30.422Z,21.25
